<?xml version="1.0" encoding="ISO-8859-1" standalone="yes"?>
<gpx
  version="1.1"
  creator="Touratech QV 4.0.133 Power User - http://www.ttqv.com"
  xmlns:xsi="http://www.w3.org/2001/XMLSchema-instance"  xmlns:topografix="http://www.topografix.com/GPX/Private/TopoGrafix/0/1"
  xmlns="http://www.topografix.com/GPX/1/1"
  xsi:schemaLocation="http://www.topografix.com/GPX/1/1 http://www.topografix.com/GPX/1/1/gpx.xsd">
<metadata>
  <time>2012-06-04T15:19:16Z</time>
  <bounds minlat="51.5573206993146" minlon="6.97051726130199" maxlat="51.6105649044542" maxlon="7.01902815385326"/>
</metadata>
<trk>
  <name>A4_Wittringer Wald</name>
  <trkseg>
    <trkpt lat="51.5660165950969" lon="6.97059760828717">
    <ele>49</ele>
    <time>2008-06-25T05:10:35Z</time>
    </trkpt>
    <trkpt lat="51.5662006852449" lon="6.97051726130199">
    <ele>49</ele>
    <time>2008-06-25T05:10:38Z</time>
    </trkpt>
    <trkpt lat="51.5663863182277" lon="6.97150103392176">
    <ele>49</ele>
    <time>2008-06-25T05:10:40Z</time>
    </trkpt>
    <trkpt lat="51.5667056120014" lon="6.97338974671871">
    <ele>49</ele>
    <time>2008-06-25T05:10:42Z</time>
    </trkpt>
    <trkpt lat="51.5668305454451" lon="6.97411469951777">
    <ele>49</ele>
    <time>2008-06-25T05:10:44Z</time>
    </trkpt>
    <trkpt lat="51.5669323869963" lon="6.97480460792107">
    <ele>49</ele>
    <time>2008-06-25T05:10:47Z</time>
    </trkpt>
    <trkpt lat="51.5670120876812" lon="6.97518886832567">
    <ele>49</ele>
    <time>2008-06-25T05:10:49Z</time>
    </trkpt>
    <trkpt lat="51.5670624615273" lon="6.97550228359318">
    <ele>49</ele>
    <time>2008-06-25T05:10:55Z</time>
    </trkpt>
    <trkpt lat="51.5670549423219" lon="6.97604373830799">
    <ele>50</ele>
    <time>2008-06-25T05:10:59Z</time>
    </trkpt>
    <trkpt lat="51.5670037541295" lon="6.97633460936323">
    <ele>48</ele>
    <time>2008-06-25T05:11:20Z</time>
    </trkpt>
    <trkpt lat="51.5671982835832" lon="6.97653339996842">
    <ele>49</ele>
    <time>2008-06-25T05:11:24Z</time>
    </trkpt>
    <trkpt lat="51.567264059804" lon="6.97741431320971">
    <ele>50</ele>
    <time>2008-06-25T05:11:25Z</time>
    </trkpt>
    <trkpt lat="51.5673078041365" lon="6.97864793666892">
    <ele>51</ele>
    <time>2008-06-25T05:11:27Z</time>
    </trkpt>
    <trkpt lat="51.5673194190477" lon="6.97964849991106">
    <ele>51</ele>
    <time>2008-06-25T05:11:35Z</time>
    </trkpt>
    <trkpt lat="51.5673704623341" lon="6.98098100925349">
    <ele>52</ele>
    <time>2008-06-25T05:11:39Z</time>
    </trkpt>
    <trkpt lat="51.5674157552869" lon="6.98198008256784">
    <ele>52</ele>
    <time>2008-06-25T05:11:40Z</time>
    </trkpt>
    <trkpt lat="51.5674175790806" lon="6.98241290135567">
    <ele>51</ele>
    <time>2008-06-25T05:11:42Z</time>
    </trkpt>
    <trkpt lat="51.5674262571992" lon="6.98291756664339">
    <ele>51</ele>
    <time>2008-06-25T05:11:44Z</time>
    </trkpt>
    <trkpt lat="51.5673592873894" lon="6.98327226170119">
    <ele>51</ele>
    <time>2008-06-25T05:11:47Z</time>
    </trkpt>
    <trkpt lat="51.5673030844666" lon="6.98359942308046">
    <ele>51</ele>
    <time>2008-06-25T05:11:48Z</time>
    </trkpt>
    <trkpt lat="51.5679257953819" lon="6.98418514653584">
    <ele>52</ele>
    <time>2008-06-25T05:11:56Z</time>
    </trkpt>
    <trkpt lat="51.5682332578012" lon="6.98441505407655">
    <ele>53</ele>
    <time>2008-06-25T05:12:14Z</time>
    </trkpt>
    <trkpt lat="51.5690844875252" lon="6.98521617055747">
    <ele>55</ele>
    <time>2008-06-25T05:12:16Z</time>
    </trkpt>
    <trkpt lat="51.5692499921542" lon="6.98536217647286">
    <ele>56</ele>
    <time>2008-06-25T05:12:54Z</time>
    </trkpt>
    <trkpt lat="51.5694839758232" lon="6.98556828965013">
    <ele>56</ele>
    <time>2008-06-25T05:13:15Z</time>
    </trkpt>
    <trkpt lat="51.5696847253526" lon="6.98580293172688">
    <ele>57</ele>
    <time>2008-06-25T05:13:17Z</time>
    </trkpt>
    <trkpt lat="51.5699137570447" lon="6.98572065258099">
    <ele>57</ele>
    <time>2008-06-25T05:13:20Z</time>
    </trkpt>
    <trkpt lat="51.5700556034614" lon="6.98547086138195">
    <ele>57</ele>
    <time>2008-06-25T05:13:22Z</time>
    </trkpt>
    <trkpt lat="51.5701792073291" lon="6.98514070177884">
    <ele>57</ele>
    <time>2008-06-25T05:13:24Z</time>
    </trkpt>
    <trkpt lat="51.5703371274339" lon="6.98484509975651">
    <ele>57</ele>
    <time>2008-06-25T05:13:28Z</time>
    </trkpt>
    <trkpt lat="51.5704906690451" lon="6.98462184412285">
    <ele>58</ele>
    <time>2008-06-25T05:13:32Z</time>
    </trkpt>
    <trkpt lat="51.5708350239259" lon="6.98439923527366">
    <ele>58</ele>
    <time>2008-06-25T05:13:33Z</time>
    </trkpt>
    <trkpt lat="51.5713200690682" lon="6.9841522172891">
    <ele>59</ele>
    <time>2008-06-25T05:13:41Z</time>
    </trkpt>
    <trkpt lat="51.571652712065" lon="6.98388495028057">
    <ele>59</ele>
    <time>2008-06-25T05:13:42Z</time>
    </trkpt>
    <trkpt lat="51.572047598633" lon="6.98364198331811">
    <ele>59</ele>
    <time>2008-06-25T05:13:45Z</time>
    </trkpt>
    <trkpt lat="51.5721461331831" lon="6.98414272397491">
    <ele>60</ele>
    <time>2008-06-25T05:13:48Z</time>
    </trkpt>
    <trkpt lat="51.5725919170523" lon="6.98359083205853">
    <ele>60</ele>
    <time>2008-06-25T05:13:49Z</time>
    </trkpt>
    <trkpt lat="51.5729214598883" lon="6.98314329384442">
    <ele>60</ele>
    <time>2008-06-25T05:13:54Z</time>
    </trkpt>
    <trkpt lat="51.5734490036865" lon="6.98244344272092">
    <ele>60</ele>
    <time>2008-06-25T05:13:57Z</time>
    </trkpt>
    <trkpt lat="51.5741306090008" lon="6.98177904848998">
    <ele>61</ele>
    <time>2008-06-25T05:13:59Z</time>
    </trkpt>
    <trkpt lat="51.5744979635933" lon="6.98134162745483">
    <ele>61</ele>
    <time>2008-06-25T05:14:00Z</time>
    </trkpt>
    <trkpt lat="51.57470064894" lon="6.98103497939533">
    <ele>61</ele>
    <time>2008-06-25T05:14:28Z</time>
    </trkpt>
    <trkpt lat="51.5756276453166" lon="6.97937924614632">
    <ele>63</ele>
    <time>2008-06-25T05:14:37Z</time>
    </trkpt>
    <trkpt lat="51.5758644330995" lon="6.97974759982926">
    <ele>63</ele>
    <time>2008-06-25T05:14:46Z</time>
    </trkpt>
    <trkpt lat="51.5762450412083" lon="6.98030803051615">
    <ele>62</ele>
    <time>2008-06-25T05:14:48Z</time>
    </trkpt>
    <trkpt lat="51.5766554345771" lon="6.9809663764053">
    <ele>61</ele>
    <time>2008-06-25T05:14:51Z</time>
    </trkpt>
    <trkpt lat="51.5768234259903" lon="6.98125660992579">
    <ele>60</ele>
    <time>2008-06-25T05:14:58Z</time>
    </trkpt>
    <trkpt lat="51.5771026234102" lon="6.98180351670302">
    <ele>59</ele>
    <time>2008-06-25T05:15:00Z</time>
    </trkpt>
    <trkpt lat="51.5774813257221" lon="6.98258056140883">
    <ele>60</ele>
    <time>2008-06-25T05:15:02Z</time>
    </trkpt>
    <trkpt lat="51.5776207667553" lon="6.98284500809613">
    <ele>60</ele>
    <time>2008-06-25T05:15:14Z</time>
    </trkpt>
    <trkpt lat="51.5777679928123" lon="6.98323540271485">
    <ele>60</ele>
    <time>2008-06-25T05:15:16Z</time>
    </trkpt>
    <trkpt lat="51.5778541349613" lon="6.98301508911824">
    <ele>59</ele>
    <time>2008-06-25T05:15:21Z</time>
    </trkpt>
    <trkpt lat="51.5780719684607" lon="6.98260852527684">
    <ele>58</ele>
    <time>2008-06-25T05:15:22Z</time>
    </trkpt>
    <trkpt lat="51.5783222581395" lon="6.98212835241791">
    <ele>59</ele>
    <time>2008-06-25T05:15:27Z</time>
    </trkpt>
    <trkpt lat="51.5785522514376" lon="6.98177536688961">
    <ele>59</ele>
    <time>2008-06-25T05:15:31Z</time>
    </trkpt>
    <trkpt lat="51.5788112556661" lon="6.98147521798442">
    <ele>58</ele>
    <time>2008-06-25T05:15:33Z</time>
    </trkpt>
    <trkpt lat="51.5789994185044" lon="6.9813045001937">
    <ele>58</ele>
    <time>2008-06-25T05:15:37Z</time>
    </trkpt>
    <trkpt lat="51.5791836709238" lon="6.98123318610546">
    <ele>58</ele>
    <time>2008-06-25T05:15:39Z</time>
    </trkpt>
    <trkpt lat="51.5794594903205" lon="6.98125704499176">
    <ele>58</ele>
    <time>2008-06-25T05:15:40Z</time>
    </trkpt>
    <trkpt lat="51.579829823262" lon="6.98154735089586">
    <ele>57</ele>
    <time>2008-06-25T05:15:42Z</time>
    </trkpt>
    <trkpt lat="51.5801097947791" lon="6.98213936701401">
    <ele>58</ele>
    <time>2008-06-25T05:15:43Z</time>
    </trkpt>
    <trkpt lat="51.5802847948696" lon="6.98251050760512">
    <ele>58</ele>
    <time>2008-06-25T05:15:44Z</time>
    </trkpt>
    <trkpt lat="51.5804585539705" lon="6.98280953538592">
    <ele>58</ele>
    <time>2008-06-25T05:15:47Z</time>
    </trkpt>
    <trkpt lat="51.5807574207493" lon="6.98319323876926">
    <ele>57</ele>
    <time>2008-06-25T05:15:49Z</time>
    </trkpt>
    <trkpt lat="51.5810266554654" lon="6.9834880447455">
    <ele>57</ele>
    <time>2008-06-25T05:15:51Z</time>
    </trkpt>
    <trkpt lat="51.5812166414423" lon="6.98375027673163">
    <ele>57</ele>
    <time>2008-06-25T05:15:52Z</time>
    </trkpt>
    <trkpt lat="51.5812996071069" lon="6.98399920533513">
    <ele>58</ele>
    <time>2008-06-25T05:15:54Z</time>
    </trkpt>
    <trkpt lat="51.5813610362277" lon="6.98430321707986">
    <ele>58</ele>
    <time>2008-06-25T05:15:58Z</time>
    </trkpt>
    <trkpt lat="51.5813196675353" lon="6.98451254239731">
    <ele>58</ele>
    <time>2008-06-25T05:15:59Z</time>
    </trkpt>
    <trkpt lat="51.5812102833156" lon="6.9846887911992">
    <ele>58</ele>
    <time>2008-06-25T05:16:07Z</time>
    </trkpt>
    <trkpt lat="51.5809465835085" lon="6.98504327414876">
    <ele>59</ele>
    <time>2008-06-25T05:16:08Z</time>
    </trkpt>
    <trkpt lat="51.5807651150946" lon="6.98527683743747">
    <ele>59</ele>
    <time>2008-06-25T05:16:10Z</time>
    </trkpt>
    <trkpt lat="51.5806962821309" lon="6.98552345939238">
    <ele>59</ele>
    <time>2008-06-25T05:16:13Z</time>
    </trkpt>
    <trkpt lat="51.5808629791153" lon="6.98606639133704">
    <ele>60</ele>
    <time>2008-06-25T05:16:16Z</time>
    </trkpt>
    <trkpt lat="51.5813854970733" lon="6.98572753217094">
    <ele>59</ele>
    <time>2008-06-25T05:16:24Z</time>
    </trkpt>
    <trkpt lat="51.582296976572" lon="6.98512787269814">
    <ele>60</ele>
    <time>2008-06-25T05:16:25Z</time>
    </trkpt>
    <trkpt lat="51.5825687700813" lon="6.9849173691737">
    <ele>59</ele>
    <time>2008-06-25T05:16:27Z</time>
    </trkpt>
    <trkpt lat="51.5827519408519" lon="6.98478295917999">
    <ele>59</ele>
    <time>2008-06-25T05:16:32Z</time>
    </trkpt>
    <trkpt lat="51.5829394889677" lon="6.98457617985476">
    <ele>60</ele>
    <time>2008-06-25T05:16:33Z</time>
    </trkpt>
    <trkpt lat="51.5831370303481" lon="6.98429678165646">
    <ele>60</ele>
    <time>2008-06-25T05:16:36Z</time>
    </trkpt>
    <trkpt lat="51.5833542480301" lon="6.9838541157982">
    <ele>59</ele>
    <time>2008-06-25T05:16:38Z</time>
    </trkpt>
    <trkpt lat="51.5835321498227" lon="6.98341318670172">
    <ele>59</ele>
    <time>2008-06-25T05:16:39Z</time>
    </trkpt>
    <trkpt lat="51.5836908762559" lon="6.98283777398819">
    <ele>58</ele>
    <time>2008-06-25T05:16:42Z</time>
    </trkpt>
    <trkpt lat="51.5838556812182" lon="6.98228915385767">
    <ele>60</ele>
    <time>2008-06-25T05:16:47Z</time>
    </trkpt>
    <trkpt lat="51.5840743204277" lon="6.98160281307834">
    <ele>62</ele>
    <time>2008-06-25T05:16:51Z</time>
    </trkpt>
    <trkpt lat="51.584251682424" lon="6.98178441525034">
    <ele>62</ele>
    <time>2008-06-25T05:16:53Z</time>
    </trkpt>
    <trkpt lat="51.5843772569479" lon="6.98189613704467">
    <ele>62</ele>
    <time>2008-06-25T05:16:59Z</time>
    </trkpt>
    <trkpt lat="51.5845357539163" lon="6.98196128979198">
    <ele>62</ele>
    <time>2008-06-25T05:17:05Z</time>
    </trkpt>
    <trkpt lat="51.5853380755073" lon="6.98220542359159">
    <ele>63</ele>
    <time>2008-06-25T05:17:08Z</time>
    </trkpt>
    <trkpt lat="51.5859483570858" lon="6.98239491770967">
    <ele>65</ele>
    <time>2008-06-25T05:17:10Z</time>
    </trkpt>
    <trkpt lat="51.5860789272832" lon="6.9824703341139">
    <ele>65</ele>
    <time>2008-06-25T05:17:17Z</time>
    </trkpt>
    <trkpt lat="51.586226811389" lon="6.98257205121865">
    <ele>67</ele>
    <time>2008-06-25T05:17:20Z</time>
    </trkpt>
    <trkpt lat="51.5863765554313" lon="6.98278195652968">
    <ele>67</ele>
    <time>2008-06-25T05:17:21Z</time>
    </trkpt>
    <trkpt lat="51.5865216126825" lon="6.98304620596681">
    <ele>64</ele>
    <time>2008-06-25T05:17:24Z</time>
    </trkpt>
    <trkpt lat="51.5867212447794" lon="6.98354262658004">
    <ele>66</ele>
    <time>2008-06-25T05:17:26Z</time>
    </trkpt>
    <trkpt lat="51.5868155986686" lon="6.98380010294664">
    <ele>68</ele>
    <time>2008-06-25T05:17:31Z</time>
    </trkpt>
    <trkpt lat="51.5868583209065" lon="6.98399670819919">
    <ele>68</ele>
    <time>2008-06-25T05:17:41Z</time>
    </trkpt>
    <trkpt lat="51.5870071728041" lon="6.98382771045301">
    <ele>68</ele>
    <time>2008-06-25T05:17:42Z</time>
    </trkpt>
    <trkpt lat="51.5872179587492" lon="6.98366499156706">
    <ele>68</ele>
    <time>2008-06-25T05:17:44Z</time>
    </trkpt>
    <trkpt lat="51.5874404418878" lon="6.98352882122159">
    <ele>68</ele>
    <time>2008-06-25T05:17:46Z</time>
    </trkpt>
    <trkpt lat="51.5876860098762" lon="6.98342771809526">
    <ele>68</ele>
    <time>2008-06-25T05:17:54Z</time>
    </trkpt>
    <trkpt lat="51.5878927284948" lon="6.98335540295612">
    <ele>68</ele>
    <time>2008-06-25T05:18:00Z</time>
    </trkpt>
    <trkpt lat="51.5881384512596" lon="6.98326331380771">
    <ele>68</ele>
    <time>2008-06-25T05:18:02Z</time>
    </trkpt>
    <trkpt lat="51.5883964913268" lon="6.98323383829091">
    <ele>68</ele>
    <time>2008-06-25T05:18:05Z</time>
    </trkpt>
    <trkpt lat="51.588547976568" lon="6.98321810528042">
    <ele>68</ele>
    <time>2008-06-25T05:19:35Z</time>
    </trkpt>
    <trkpt lat="51.5885748969896" lon="6.98380340338884">
    <ele>69</ele>
    <time>2008-06-25T05:19:40Z</time>
    </trkpt>
    <trkpt lat="51.588630097292" lon="6.98475135379416">
    <ele>69</ele>
    <time>2008-06-25T05:19:44Z</time>
    </trkpt>
    <trkpt lat="51.5886863277246" lon="6.98472783305548">
    <ele>69</ele>
    <time>2008-06-25T05:19:47Z</time>
    </trkpt>
    <trkpt lat="51.5891603069768" lon="6.98450834613186">
    <ele>70</ele>
    <time>2008-06-25T05:19:53Z</time>
    </trkpt>
    <trkpt lat="51.5895092948449" lon="6.98434575199823">
    <ele>70</ele>
    <time>2008-06-25T05:20:03Z</time>
    </trkpt>
    <trkpt lat="51.5901308841206" lon="6.98407737982725">
    <ele>71</ele>
    <time>2008-06-25T05:20:07Z</time>
    </trkpt>
    <trkpt lat="51.5901308841206" lon="6.98407737982725">
    <ele>71</ele>
    <time>2008-06-25T05:20:09Z</time>
    </trkpt>
    <trkpt lat="51.5906274820377" lon="6.98386590038851">
    <ele>71</ele>
    <time>2008-06-25T05:20:10Z</time>
    </trkpt>
    <trkpt lat="51.5907768331432" lon="6.98470748292451">
    <ele>72</ele>
    <time>2008-06-25T05:20:20Z</time>
    </trkpt>
    <trkpt lat="51.5908603034405" lon="6.98465867106017">
    <ele>72</ele>
    <time>2008-06-25T05:20:23Z</time>
    </trkpt>
    <trkpt lat="51.5911265927366" lon="6.98478223449782">
    <ele>71</ele>
    <time>2008-06-25T05:20:27Z</time>
    </trkpt>
    <trkpt lat="51.5922732483565" lon="6.98478561761006">
    <ele>72</ele>
    <time>2008-06-25T05:20:31Z</time>
    </trkpt>
    <trkpt lat="51.59278479673" lon="6.98479004377442">
    <ele>72</ele>
    <time>2008-06-25T05:20:33Z</time>
    </trkpt>
    <trkpt lat="51.5928972776919" lon="6.98479408825182">
    <ele>72</ele>
    <time>2008-06-25T05:22:30Z</time>
    </trkpt>
    <trkpt lat="51.5928910828635" lon="6.98443341102991">
    <ele>72</ele>
    <time>2008-06-25T05:22:33Z</time>
    </trkpt>
    <trkpt lat="51.5929162214488" lon="6.98426084595391">
    <ele>72</ele>
    <time>2008-06-25T05:22:37Z</time>
    </trkpt>
    <trkpt lat="51.5929529022047" lon="6.98410581715266">
    <ele>72</ele>
    <time>2008-06-25T05:22:39Z</time>
    </trkpt>
    <trkpt lat="51.5930290517897" lon="6.98395806396728">
    <ele>72</ele>
    <time>2008-06-25T05:22:40Z</time>
    </trkpt>
    <trkpt lat="51.5934306367943" lon="6.98377784884398">
    <ele>72</ele>
    <time>2008-06-25T05:22:42Z</time>
    </trkpt>
    <trkpt lat="51.5944236751777" lon="6.98334582881167">
    <ele>71</ele>
    <time>2008-06-25T05:22:50Z</time>
    </trkpt>
    <trkpt lat="51.5951829971652" lon="6.9830504853646">
    <ele>70</ele>
    <time>2008-06-25T05:22:58Z</time>
    </trkpt>
    <trkpt lat="51.5954447930893" lon="6.982912544984">
    <ele>70</ele>
    <time>2008-06-25T05:23:00Z</time>
    </trkpt>
    <trkpt lat="51.5955207129904" lon="6.98340551774588">
    <ele>70</ele>
    <time>2008-06-25T05:23:02Z</time>
    </trkpt>
    <trkpt lat="51.5955718795429" lon="6.98343934820559">
    <ele>70</ele>
    <time>2008-06-25T05:23:05Z</time>
    </trkpt>
    <trkpt lat="51.5959584742619" lon="6.98336807471045">
    <ele>69</ele>
    <time>2008-06-25T05:23:09Z</time>
    </trkpt>
    <trkpt lat="51.5958324762384" lon="6.98421292341788">
    <ele>69</ele>
    <time>2008-06-25T05:23:11Z</time>
    </trkpt>
    <trkpt lat="51.5958149677253" lon="6.98450247852167">
    <ele>69</ele>
    <time>2008-06-25T05:23:14Z</time>
    </trkpt>
    <trkpt lat="51.5961196419472" lon="6.98457020756596">
    <ele>69</ele>
    <time>2008-06-25T05:23:21Z</time>
    </trkpt>
    <trkpt lat="51.5964517781197" lon="6.9846006235545">
    <ele>68</ele>
    <time>2008-06-25T05:23:23Z</time>
    </trkpt>
    <trkpt lat="51.596755677889" lon="6.98462326560905">
    <ele>68</ele>
    <time>2008-06-25T05:23:35Z</time>
    </trkpt>
    <trkpt lat="51.5972124567595" lon="6.9847113358677">
    <ele>67</ele>
    <time>2008-06-25T05:23:40Z</time>
    </trkpt>
    <trkpt lat="51.5972458448175" lon="6.98469180825444">
    <ele>67</ele>
    <time>2008-06-25T05:23:44Z</time>
    </trkpt>
    <trkpt lat="51.5972359702609" lon="6.98378978060415">
    <ele>66</ele>
    <time>2008-06-25T05:23:48Z</time>
    </trkpt>
    <trkpt lat="51.5974718547529" lon="6.98377933156634">
    <ele>66</ele>
    <time>2008-06-25T05:24:04Z</time>
    </trkpt>
    <trkpt lat="51.5978974537326" lon="6.98368828008982">
    <ele>65</ele>
    <time>2008-06-25T05:24:07Z</time>
    </trkpt>
    <trkpt lat="51.5982968305864" lon="6.98370668683079">
    <ele>65</ele>
    <time>2008-06-25T05:24:10Z</time>
    </trkpt>
    <trkpt lat="51.5988659358856" lon="6.98378977444961">
    <ele>64</ele>
    <time>2008-06-25T05:24:20Z</time>
    </trkpt>
    <trkpt lat="51.5990690522114" lon="6.98383492651032">
    <ele>64</ele>
    <time>2008-06-25T05:25:37Z</time>
    </trkpt>
    <trkpt lat="51.5994464286291" lon="6.98388138458511">
    <ele>63</ele>
    <time>2008-06-25T05:25:40Z</time>
    </trkpt>
    <trkpt lat="51.5997058628059" lon="6.98393306793558">
    <ele>62</ele>
    <time>2008-06-25T05:25:42Z</time>
    </trkpt>
    <trkpt lat="51.5997314266008" lon="6.98411243839708">
    <ele>62</ele>
    <time>2008-06-25T05:25:44Z</time>
    </trkpt>
    <trkpt lat="51.5997963042016" lon="6.98429006784724">
    <ele>62</ele>
    <time>2008-06-25T05:25:45Z</time>
    </trkpt>
    <trkpt lat="51.5998544809474" lon="6.98440481837713">
    <ele>62</ele>
    <time>2008-06-25T05:25:46Z</time>
    </trkpt>
    <trkpt lat="51.5999655676504" lon="6.98432769707628">
    <ele>62</ele>
    <time>2008-06-25T05:25:49Z</time>
    </trkpt>
    <trkpt lat="51.6000420270239" lon="6.98419795784759">
    <ele>62</ele>
    <time>2008-06-25T05:25:53Z</time>
    </trkpt>
    <trkpt lat="51.6001191059544" lon="6.98410429161673">
    <ele>62</ele>
    <time>2008-06-25T05:25:54Z</time>
    </trkpt>
    <trkpt lat="51.6003736983309" lon="6.98420131771186">
    <ele>62</ele>
    <time>2008-06-25T05:25:56Z</time>
    </trkpt>
    <trkpt lat="51.6009780500695" lon="6.98437310734876">
    <ele>61</ele>
    <time>2008-06-25T05:26:01Z</time>
    </trkpt>
    <trkpt lat="51.6018764625194" lon="6.98464921045651">
    <ele>59</ele>
    <time>2008-06-25T05:26:04Z</time>
    </trkpt>
    <trkpt lat="51.6028815839335" lon="6.98492059878706">
    <ele>57</ele>
    <time>2008-06-25T05:26:10Z</time>
    </trkpt>
    <trkpt lat="51.6035481784039" lon="6.98511672819288">
    <ele>55</ele>
    <time>2008-06-25T05:26:13Z</time>
    </trkpt>
    <trkpt lat="51.6042021463487" lon="6.98523218783488">
    <ele>58</ele>
    <time>2008-06-25T05:26:14Z</time>
    </trkpt>
    <trkpt lat="51.604527891497" lon="6.98521776489641">
    <ele>59</ele>
    <time>2008-06-25T05:26:17Z</time>
    </trkpt>
    <trkpt lat="51.6048453877672" lon="6.9850502622525">
    <ele>59</ele>
    <time>2008-06-25T05:26:21Z</time>
    </trkpt>
    <trkpt lat="51.6053190558233" lon="6.98481265725534">
    <ele>59</ele>
    <time>2008-06-25T05:26:25Z</time>
    </trkpt>
    <trkpt lat="51.6061014644585" lon="6.98455234548503">
    <ele>59</ele>
    <time>2008-06-25T05:26:28Z</time>
    </trkpt>
    <trkpt lat="51.6071319186217" lon="6.98433519522721">
    <ele>58</ele>
    <time>2008-06-25T05:26:30Z</time>
    </trkpt>
    <trkpt lat="51.6078707899275" lon="6.98415803383872">
    <ele>57</ele>
    <time>2008-06-25T05:26:31Z</time>
    </trkpt>
    <trkpt lat="51.60829092696" lon="6.98407623120217">
    <ele>56</ele>
    <time>2008-06-25T05:26:37Z</time>
    </trkpt>
    <trkpt lat="51.6086162068063" lon="6.9840347377544">
    <ele>56</ele>
    <time>2008-06-25T05:26:39Z</time>
    </trkpt>
    <trkpt lat="51.6087834174506" lon="6.98428008299375">
    <ele>56</ele>
    <time>2008-06-25T05:26:41Z</time>
    </trkpt>
    <trkpt lat="51.609106294879" lon="6.98475323612819">
    <ele>56</ele>
    <time>2008-06-25T05:26:44Z</time>
    </trkpt>
    <trkpt lat="51.6093043152433" lon="6.98494239537541">
    <ele>56</ele>
    <time>2008-06-25T05:26:46Z</time>
    </trkpt>
    <trkpt lat="51.6095981237519" lon="6.9852459951723">
    <ele>56</ele>
    <time>2008-06-25T05:26:47Z</time>
    </trkpt>
    <trkpt lat="51.6098659606647" lon="6.98545981286612">
    <ele>56</ele>
    <time>2008-06-25T05:26:50Z</time>
    </trkpt>
    <trkpt lat="51.6100228647673" lon="6.98575978934169">
    <ele>56</ele>
    <time>2008-06-25T05:26:51Z</time>
    </trkpt>
    <trkpt lat="51.6101997127873" lon="6.986239429369">
    <ele>56</ele>
    <time>2008-06-25T05:26:53Z</time>
    </trkpt>
    <trkpt lat="51.6102536644808" lon="6.98643564031063">
    <ele>56</ele>
    <time>2008-06-25T05:27:30Z</time>
    </trkpt>
    <trkpt lat="51.6103503343064" lon="6.98682856066581">
    <ele>56</ele>
    <time>2008-06-25T05:27:32Z</time>
    </trkpt>
    <trkpt lat="51.6103925416028" lon="6.98732319203479">
    <ele>56</ele>
    <time>2008-06-25T05:27:34Z</time>
    </trkpt>
    <trkpt lat="51.6104216582374" lon="6.98771007614598">
    <ele>57</ele>
    <time>2008-06-25T05:27:42Z</time>
    </trkpt>
    <trkpt lat="51.610489728774" lon="6.98840216537418">
    <ele>56</ele>
    <time>2008-06-25T05:27:44Z</time>
    </trkpt>
    <trkpt lat="51.6105649044542" lon="6.98950919777306">
    <ele>57</ele>
    <time>2008-06-25T05:27:48Z</time>
    </trkpt>
    <trkpt lat="51.6102043257283" lon="6.98978692168898">
    <ele>61</ele>
    <time>2008-06-25T05:27:49Z</time>
    </trkpt>
    <trkpt lat="51.6096224925252" lon="6.99027301203718">
    <ele>60</ele>
    <time>2008-06-25T05:27:50Z</time>
    </trkpt>
    <trkpt lat="51.6091041352544" lon="6.99085558339689">
    <ele>60</ele>
    <time>2008-06-25T05:27:59Z</time>
    </trkpt>
    <trkpt lat="51.6088781901239" lon="6.99111831578382">
    <ele>60</ele>
    <time>2008-06-25T05:28:03Z</time>
    </trkpt>
    <trkpt lat="51.6086639401438" lon="6.99140760992154">
    <ele>61</ele>
    <time>2008-06-25T05:28:04Z</time>
    </trkpt>
    <trkpt lat="51.6085150784458" lon="6.99157666558084">
    <ele>61</ele>
    <time>2008-06-25T05:28:05Z</time>
    </trkpt>
    <trkpt lat="51.6083075835739" lon="6.99160387877886">
    <ele>61</ele>
    <time>2008-06-25T05:28:07Z</time>
    </trkpt>
    <trkpt lat="51.6081684106275" lon="6.99168223669667">
    <ele>61</ele>
    <time>2008-06-25T05:28:10Z</time>
    </trkpt>
    <trkpt lat="51.6079585407504" lon="6.9918991160992">
    <ele>61</ele>
    <time>2008-06-25T05:28:11Z</time>
    </trkpt>
    <trkpt lat="51.6076399541501" lon="6.99200344403733">
    <ele>62</ele>
    <time>2008-06-25T05:28:14Z</time>
    </trkpt>
    <trkpt lat="51.6073662979571" lon="6.99210578766502">
    <ele>63</ele>
    <time>2008-06-25T05:28:15Z</time>
    </trkpt>
    <trkpt lat="51.6071982714311" lon="6.99214028251712">
    <ele>63</ele>
    <time>2008-06-25T05:28:16Z</time>
    </trkpt>
    <trkpt lat="51.6071307213067" lon="6.99213423683913">
    <ele>63</ele>
    <time>2008-06-25T05:28:17Z</time>
    </trkpt>
    <trkpt lat="51.6070203073476" lon="6.99192247137093">
    <ele>64</ele>
    <time>2008-06-25T05:28:18Z</time>
    </trkpt>
    <trkpt lat="51.606870329134" lon="6.99136944425949">
    <ele>64</ele>
    <time>2008-06-25T05:28:20Z</time>
    </trkpt>
    <trkpt lat="51.6068025282923" lon="6.99102040236984">
    <ele>64</ele>
    <time>2008-06-25T05:28:21Z</time>
    </trkpt>
    <trkpt lat="51.6067718216934" lon="6.9908683071099">
    <ele>64</ele>
    <time>2008-06-25T05:28:22Z</time>
    </trkpt>
    <trkpt lat="51.6067025728593" lon="6.99076304666028">
    <ele>64</ele>
    <time>2008-06-25T05:28:23Z</time>
    </trkpt>
    <trkpt lat="51.6059833184936" lon="6.99110170409294">
    <ele>65</ele>
    <time>2008-06-25T05:28:32Z</time>
    </trkpt>
    <trkpt lat="51.6055483337672" lon="6.99130143424412">
    <ele>65</ele>
    <time>2008-06-25T05:28:36Z</time>
    </trkpt>
    <trkpt lat="51.6052648348057" lon="6.99148544762289">
    <ele>65</ele>
    <time>2008-06-25T05:28:39Z</time>
    </trkpt>
    <trkpt lat="51.605078742855" lon="6.99046467537999">
    <ele>65</ele>
    <time>2008-06-25T05:28:49Z</time>
    </trkpt>
    <trkpt lat="51.6047433084784" lon="6.99056975020996">
    <ele>65</ele>
    <time>2008-06-25T05:28:52Z</time>
    </trkpt>
    <trkpt lat="51.604219081209" lon="6.99080952425849">
    <ele>65</ele>
    <time>2008-06-25T05:28:54Z</time>
    </trkpt>
    <trkpt lat="51.6038788021534" lon="6.99095993806403">
    <ele>64</ele>
    <time>2008-06-25T05:29:00Z</time>
    </trkpt>
    <trkpt lat="51.603671152866" lon="6.99097813161051">
    <ele>64</ele>
    <time>2008-06-25T05:29:02Z</time>
    </trkpt>
    <trkpt lat="51.6033877120987" lon="6.99083720553302">
    <ele>63</ele>
    <time>2008-06-25T05:29:04Z</time>
    </trkpt>
    <trkpt lat="51.6031421955228" lon="6.990613374325">
    <ele>63</ele>
    <time>2008-06-25T05:29:06Z</time>
    </trkpt>
    <trkpt lat="51.6025791311208" lon="6.98989812926024">
    <ele>61</ele>
    <time>2008-06-25T05:29:07Z</time>
    </trkpt>
    <trkpt lat="51.6024814909367" lon="6.98977608257255">
    <ele>61</ele>
    <time>2008-06-25T05:29:09Z</time>
    </trkpt>
    <trkpt lat="51.6023434004324" lon="6.98991756733646">
    <ele>61</ele>
    <time>2008-06-25T05:29:14Z</time>
    </trkpt>
    <trkpt lat="51.6022163879014" lon="6.99004953631613">
    <ele>60</ele>
    <time>2008-06-25T05:29:17Z</time>
    </trkpt>
    <trkpt lat="51.602104370556" lon="6.99007253501053">
    <ele>61</ele>
    <time>2008-06-25T05:29:18Z</time>
    </trkpt>
    <trkpt lat="51.6019184142878" lon="6.99004464573103">
    <ele>60</ele>
    <time>2008-06-25T05:29:19Z</time>
    </trkpt>
    <trkpt lat="51.6017889301045" lon="6.99003231353058">
    <ele>61</ele>
    <time>2008-06-25T05:29:20Z</time>
    </trkpt>
    <trkpt lat="51.6016432148634" lon="6.99005680032985">
    <ele>61</ele>
    <time>2008-06-25T05:29:21Z</time>
    </trkpt>
    <trkpt lat="51.6013310181795" lon="6.99020597053961">
    <ele>61</ele>
    <time>2008-06-25T05:29:27Z</time>
    </trkpt>
    <trkpt lat="51.6011640732499" lon="6.99030359739437">
    <ele>62</ele>
    <time>2008-06-25T05:29:28Z</time>
    </trkpt>
    <trkpt lat="51.6010707581131" lon="6.99043407380193">
    <ele>62</ele>
    <time>2008-06-25T05:29:30Z</time>
    </trkpt>
    <trkpt lat="51.600978832672" lon="6.99064571675504">
    <ele>62</ele>
    <time>2008-06-25T05:29:31Z</time>
    </trkpt>
    <trkpt lat="51.6008592884669" lon="6.99088565421314">
    <ele>62</ele>
    <time>2008-06-25T05:29:33Z</time>
    </trkpt>
    <trkpt lat="51.6007661270512" lon="6.99102514707884">
    <ele>63</ele>
    <time>2008-06-25T05:29:35Z</time>
    </trkpt>
    <trkpt lat="51.6005650202982" lon="6.99109720168128">
    <ele>63</ele>
    <time>2008-06-25T05:29:36Z</time>
    </trkpt>
    <trkpt lat="51.6000830974799" lon="6.99118165064684">
    <ele>65</ele>
    <time>2008-06-25T05:29:44Z</time>
    </trkpt>
    <trkpt lat="51.5998702948189" lon="6.99122714412415">
    <ele>65</ele>
    <time>2008-06-25T05:30:00Z</time>
    </trkpt>
    <trkpt lat="51.5996855737335" lon="6.99127139773057">
    <ele>66</ele>
    <time>2008-06-25T05:30:09Z</time>
    </trkpt>
    <trkpt lat="51.5994342286044" lon="6.99136371678691">
    <ele>67</ele>
    <time>2008-06-25T05:30:11Z</time>
    </trkpt>
    <trkpt lat="51.5993000543407" lon="6.99140573859569">
    <ele>67</ele>
    <time>2008-06-25T05:30:14Z</time>
    </trkpt>
    <trkpt lat="51.5989775490862" lon="6.99160949619985">
    <ele>68</ele>
    <time>2008-06-25T05:30:19Z</time>
    </trkpt>
    <trkpt lat="51.5985946528048" lon="6.99189713963838">
    <ele>69</ele>
    <time>2008-06-25T05:30:21Z</time>
    </trkpt>
    <trkpt lat="51.5983175401089" lon="6.99212596247034">
    <ele>70</ele>
    <time>2008-06-25T05:30:24Z</time>
    </trkpt>
    <trkpt lat="51.5979569534529" lon="6.9924035883867">
    <ele>71</ele>
    <time>2008-06-25T05:30:27Z</time>
    </trkpt>
    <trkpt lat="51.5976739148146" lon="6.99261461670382">
    <ele>72</ele>
    <time>2008-06-25T05:30:37Z</time>
    </trkpt>
    <trkpt lat="51.5975075846313" lon="6.99274829811715">
    <ele>73</ele>
    <time>2008-06-25T05:30:57Z</time>
    </trkpt>
    <trkpt lat="51.5971749237629" lon="6.99301565797458">
    <ele>74</ele>
    <time>2008-06-25T05:30:59Z</time>
    </trkpt>
    <trkpt lat="51.5969714378289" lon="6.99327731880998">
    <ele>74</ele>
    <time>2008-06-25T05:31:02Z</time>
    </trkpt>
    <trkpt lat="51.5966073015909" lon="6.9933475197273">
    <ele>75</ele>
    <time>2008-06-25T05:31:04Z</time>
    </trkpt>
    <trkpt lat="51.5956035202102" lon="6.99348201408318">
    <ele>76</ele>
    <time>2008-06-25T05:31:07Z</time>
    </trkpt>
    <trkpt lat="51.5953175498208" lon="6.99352169268213">
    <ele>76</ele>
    <time>2008-06-25T05:31:08Z</time>
    </trkpt>
    <trkpt lat="51.5955276007291" lon="6.99397267278452">
    <ele>76</ele>
    <time>2008-06-25T05:31:11Z</time>
    </trkpt>
    <trkpt lat="51.5957077187374" lon="6.99431668386821">
    <ele>76</ele>
    <time>2008-06-25T05:31:14Z</time>
    </trkpt>
    <trkpt lat="51.5955266950463" lon="6.99457734059458">
    <ele>76</ele>
    <time>2008-06-25T05:31:15Z</time>
    </trkpt>
    <trkpt lat="51.5953942145465" lon="6.99471854132556">
    <ele>76</ele>
    <time>2008-06-25T05:31:18Z</time>
    </trkpt>
    <trkpt lat="51.5952492684589" lon="6.99478809640489">
    <ele>76</ele>
    <time>2008-06-25T05:31:20Z</time>
    </trkpt>
    <trkpt lat="51.595120246791" lon="6.99480280425905">
    <ele>76</ele>
    <time>2008-06-25T05:31:21Z</time>
    </trkpt>
    <trkpt lat="51.5949919955659" lon="6.99486259903173">
    <ele>76</ele>
    <time>2008-06-25T05:31:21Z</time>
    </trkpt>
    <trkpt lat="51.5949033668362" lon="6.99493869649152">
    <ele>76</ele>
    <time>2008-06-25T05:31:25Z</time>
    </trkpt>
    <trkpt lat="51.5949006779276" lon="6.9951102741979">
    <ele>76</ele>
    <time>2008-06-25T05:31:37Z</time>
    </trkpt>
    <trkpt lat="51.5949326111257" lon="6.99533447216812">
    <ele>77</ele>
    <time>2008-06-25T05:31:39Z</time>
    </trkpt>
    <trkpt lat="51.5950127091948" lon="6.99574605758122">
    <ele>77</ele>
    <time>2008-06-25T05:31:40Z</time>
    </trkpt>
    <trkpt lat="51.5950803412195" lon="6.9960859995425">
    <ele>77</ele>
    <time>2008-06-25T05:31:42Z</time>
    </trkpt>
    <trkpt lat="51.5950552657408" lon="6.99659245869175">
    <ele>77</ele>
    <time>2008-06-25T05:31:44Z</time>
    </trkpt>
    <trkpt lat="51.5949627919236" lon="6.99710188282333">
    <ele>77</ele>
    <time>2008-06-25T05:31:45Z</time>
    </trkpt>
    <trkpt lat="51.5949499444615" lon="6.99733707677019">
    <ele>77</ele>
    <time>2008-06-25T05:31:47Z</time>
    </trkpt>
    <trkpt lat="51.5949185547681" lon="6.99747382035897">
    <ele>78</ele>
    <time>2008-06-25T05:31:51Z</time>
    </trkpt>
    <trkpt lat="51.5949034751601" lon="6.99790764386138">
    <ele>78</ele>
    <time>2008-06-25T05:31:52Z</time>
    </trkpt>
    <trkpt lat="51.594876853603" lon="6.99832392626117">
    <ele>77</ele>
    <time>2008-06-25T05:31:55Z</time>
    </trkpt>
    <trkpt lat="51.5948039156197" lon="6.99866102709059">
    <ele>77</ele>
    <time>2008-06-25T05:31:56Z</time>
    </trkpt>
    <trkpt lat="51.5946729678499" lon="6.99889238738341">
    <ele>77</ele>
    <time>2008-06-25T05:32:00Z</time>
    </trkpt>
    <trkpt lat="51.5945459445618" lon="6.99902430876332">
    <ele>77</ele>
    <time>2008-06-25T05:32:03Z</time>
    </trkpt>
    <trkpt lat="51.5943571412299" lon="6.99915894490806">
    <ele>77</ele>
    <time>2008-06-25T05:32:23Z</time>
    </trkpt>
    <trkpt lat="51.5942914362667" lon="6.99926109743248">
    <ele>77</ele>
    <time>2008-06-25T05:32:24Z</time>
    </trkpt>
    <trkpt lat="51.5942629651887" lon="6.99956916615034">
    <ele>77</ele>
    <time>2008-06-25T05:32:25Z</time>
    </trkpt>
    <trkpt lat="51.5941582394568" lon="7.00034983392149">
    <ele>76</ele>
    <time>2008-06-25T05:32:28Z</time>
    </trkpt>
    <trkpt lat="51.5940507603345" lon="7.00030943526349">
    <ele>76</ele>
    <time>2008-06-25T05:32:47Z</time>
    </trkpt>
    <trkpt lat="51.5938473421087" lon="7.00024617945623">
    <ele>76</ele>
    <time>2008-06-25T05:32:48Z</time>
    </trkpt>
    <trkpt lat="51.5935853013681" lon="7.00004111704687">
    <ele>76</ele>
    <time>2008-06-25T05:32:50Z</time>
    </trkpt>
    <trkpt lat="51.5932043945722" lon="6.99978713668766">
    <ele>76</ele>
    <time>2008-06-25T05:32:51Z</time>
    </trkpt>
    <trkpt lat="51.5924198064884" lon="6.99926214199438">
    <ele>75</ele>
    <time>2008-06-25T05:33:05Z</time>
    </trkpt>
    <trkpt lat="51.5920382600373" lon="7.00028955343892">
    <ele>74</ele>
    <time>2008-06-25T05:33:09Z</time>
    </trkpt>
    <trkpt lat="51.5916880987039" lon="7.00118021661919">
    <ele>75</ele>
    <time>2008-06-25T05:33:15Z</time>
    </trkpt>
    <trkpt lat="51.5915207489539" lon="7.0015845979251">
    <ele>75</ele>
    <time>2008-06-25T05:33:20Z</time>
    </trkpt>
    <trkpt lat="51.5913672643059" lon="7.00148305380381">
    <ele>74</ele>
    <time>2008-06-25T05:33:33Z</time>
    </trkpt>
    <trkpt lat="51.5908949627469" lon="7.00114285214089">
    <ele>74</ele>
    <time>2008-06-25T05:33:36Z</time>
    </trkpt>
    <trkpt lat="51.5902524794857" lon="7.00071087471821">
    <ele>74</ele>
    <time>2008-06-25T05:33:39Z</time>
    </trkpt>
    <trkpt lat="51.589707009421" lon="7.0003648795073">
    <ele>75</ele>
    <time>2008-06-25T05:33:41Z</time>
    </trkpt>
    <trkpt lat="51.5895248273005" lon="7.00022851142936">
    <ele>75</ele>
    <time>2008-06-25T05:33:42Z</time>
    </trkpt>
    <trkpt lat="51.5892474742321" lon="7.00011437097919">
    <ele>75</ele>
    <time>2008-06-25T05:33:45Z</time>
    </trkpt>
    <trkpt lat="51.5889195738035" lon="7.00000245228521">
    <ele>75</ele>
    <time>2008-06-25T05:33:52Z</time>
    </trkpt>
    <trkpt lat="51.5886312951723" lon="6.99990684042237">
    <ele>74</ele>
    <time>2008-06-25T05:33:54Z</time>
    </trkpt>
    <trkpt lat="51.5883654819077" lon="6.99981024280039">
    <ele>74</ele>
    <time>2008-06-25T05:33:55Z</time>
    </trkpt>
    <trkpt lat="51.5880675073686" lon="6.99980528729023">
    <ele>75</ele>
    <time>2008-06-25T05:33:57Z</time>
    </trkpt>
    <trkpt lat="51.5879774918906" lon="6.99980021889568">
    <ele>75</ele>
    <time>2008-06-25T05:33:59Z</time>
    </trkpt>
    <trkpt lat="51.587119264307" lon="6.99990107850163">
    <ele>74</ele>
    <time>2008-06-25T05:34:04Z</time>
    </trkpt>
    <trkpt lat="51.5868949171578" lon="6.99992897842709">
    <ele>74</ele>
    <time>2008-06-25T05:34:57Z</time>
    </trkpt>
    <trkpt lat="51.5864800746646" lon="6.99999231295366">
    <ele>74</ele>
    <time>2008-06-25T05:35:01Z</time>
    </trkpt>
    <trkpt lat="51.5862053338584" lon="7.00003144781417">
    <ele>74</ele>
    <time>2008-06-25T05:35:03Z</time>
    </trkpt>
    <trkpt lat="51.5858248040931" lon="7.00012936270436">
    <ele>74</ele>
    <time>2008-06-25T05:35:06Z</time>
    </trkpt>
    <trkpt lat="51.5853882642055" lon="7.00023875793279">
    <ele>73</ele>
    <time>2008-06-25T05:35:07Z</time>
    </trkpt>
    <trkpt lat="51.5849404914301" lon="7.00034864421873">
    <ele>73</ele>
    <time>2008-06-25T05:35:09Z</time>
    </trkpt>
    <trkpt lat="51.5849938718224" lon="7.00084252111947">
    <ele>73</ele>
    <time>2008-06-25T05:35:12Z</time>
    </trkpt>
    <trkpt lat="51.5850389351072" lon="7.00150818615398">
    <ele>73</ele>
    <time>2008-06-25T05:35:13Z</time>
    </trkpt>
    <trkpt lat="51.585089059933" lon="7.00247136354024">
    <ele>75</ele>
    <time>2008-06-25T05:35:14Z</time>
    </trkpt>
    <trkpt lat="51.5851580792038" lon="7.00388482592837">
    <ele>77</ele>
    <time>2008-06-25T05:35:16Z</time>
    </trkpt>
    <trkpt lat="51.5851804493654" lon="7.00420864569793">
    <ele>77</ele>
    <time>2008-06-25T05:35:46Z</time>
    </trkpt>
    <trkpt lat="51.5851985821491" lon="7.00461385158485">
    <ele>78</ele>
    <time>2008-06-25T05:35:49Z</time>
    </trkpt>
    <trkpt lat="51.5852003242487" lon="7.00504684257462">
    <ele>79</ele>
    <time>2008-06-25T05:35:50Z</time>
    </trkpt>
    <trkpt lat="51.5851738295804" lon="7.00547204814139">
    <ele>79</ele>
    <time>2008-06-25T05:35:53Z</time>
    </trkpt>
    <trkpt lat="51.5851345683651" lon="7.00580759004066">
    <ele>80</ele>
    <time>2008-06-25T05:35:55Z</time>
    </trkpt>
    <trkpt lat="51.5850863192167" lon="7.00594503623114">
    <ele>80</ele>
    <time>2008-06-25T05:35:57Z</time>
    </trkpt>
    <trkpt lat="51.5849686815518" lon="7.00596823202275">
    <ele>80</ele>
    <time>2008-06-25T05:35:58Z</time>
    </trkpt>
    <trkpt lat="51.5845413765942" lon="7.00595987715122">
    <ele>81</ele>
    <time>2008-06-25T05:36:00Z</time>
    </trkpt>
    <trkpt lat="51.5839665134024" lon="7.00586776382275">
    <ele>81</ele>
    <time>2008-06-25T05:36:04Z</time>
    </trkpt>
    <trkpt lat="51.5835328258898" lon="7.00581457978763">
    <ele>81</ele>
    <time>2008-06-25T05:36:09Z</time>
    </trkpt>
    <trkpt lat="51.583386646619" lon="7.00581195923449">
    <ele>81</ele>
    <time>2008-06-25T05:36:10Z</time>
    </trkpt>
    <trkpt lat="51.5831161407192" lon="7.00576967391246">
    <ele>81</ele>
    <time>2008-06-25T05:36:13Z</time>
    </trkpt>
    <trkpt lat="51.582833022946" lon="7.00564674545477">
    <ele>81</ele>
    <time>2008-06-25T05:36:15Z</time>
    </trkpt>
    <trkpt lat="51.5827379035672" lon="7.00600275918994">
    <ele>81</ele>
    <time>2008-06-25T05:36:16Z</time>
    </trkpt>
    <trkpt lat="51.5826599386147" lon="7.00637606389295">
    <ele>82</ele>
    <time>2008-06-25T05:36:18Z</time>
    </trkpt>
    <trkpt lat="51.5827021635933" lon="7.00654562842893">
    <ele>82</ele>
    <time>2008-06-25T05:36:19Z</time>
    </trkpt>
    <trkpt lat="51.5826783699812" lon="7.00679927850942">
    <ele>82</ele>
    <time>2008-06-25T05:36:22Z</time>
    </trkpt>
    <trkpt lat="51.5825993306423" lon="7.00710947630792">
    <ele>82</ele>
    <time>2008-06-25T05:36:23Z</time>
    </trkpt>
    <trkpt lat="51.5826775494685" lon="7.00741279227248">
    <ele>82</ele>
    <time>2008-06-25T05:36:25Z</time>
    </trkpt>
    <trkpt lat="51.5827741474173" lon="7.00780552272576">
    <ele>82</ele>
    <time>2008-06-25T05:36:27Z</time>
    </trkpt>
    <trkpt lat="51.5826744299054" lon="7.00789108055324">
    <ele>82</ele>
    <time>2008-06-25T05:36:29Z</time>
    </trkpt>
    <trkpt lat="51.5826100942538" lon="7.00807432922598">
    <ele>82</ele>
    <time>2008-06-25T05:36:31Z</time>
    </trkpt>
    <trkpt lat="51.5825401419141" lon="7.00825782302408">
    <ele>82</ele>
    <time>2008-06-25T05:36:33Z</time>
    </trkpt>
    <trkpt lat="51.5824816198867" lon="7.00878364069431">
    <ele>82</ele>
    <time>2008-06-25T05:36:38Z</time>
    </trkpt>
    <trkpt lat="51.5824409722143" lon="7.00903802512935">
    <ele>82</ele>
    <time>2008-06-25T05:36:54Z</time>
    </trkpt>
    <trkpt lat="51.5823839336431" lon="7.00932019060957">
    <ele>83</ele>
    <time>2008-06-25T05:36:56Z</time>
    </trkpt>
    <trkpt lat="51.5823228072414" lon="7.00969275062833">
    <ele>83</ele>
    <time>2008-06-25T05:36:58Z</time>
    </trkpt>
    <trkpt lat="51.5823158559889" lon="7.00994566085039">
    <ele>83</ele>
    <time>2008-06-25T05:36:59Z</time>
    </trkpt>
    <trkpt lat="51.5823082926514" lon="7.01016251110572">
    <ele>83</ele>
    <time>2008-06-25T05:37:03Z</time>
    </trkpt>
    <trkpt lat="51.5823277803004" lon="7.01064882924154">
    <ele>83</ele>
    <time>2008-06-25T05:37:06Z</time>
    </trkpt>
    <trkpt lat="51.5823515443883" lon="7.01138756757178">
    <ele>83</ele>
    <time>2008-06-25T05:37:08Z</time>
    </trkpt>
    <trkpt lat="51.5823626608635" lon="7.01171186209691">
    <ele>83</ele>
    <time>2008-06-25T05:37:09Z</time>
    </trkpt>
    <trkpt lat="51.5823894037085" lon="7.01196330127572">
    <ele>83</ele>
    <time>2008-06-25T05:37:12Z</time>
    </trkpt>
    <trkpt lat="51.5825420316029" lon="7.01267837438401">
    <ele>83</ele>
    <time>2008-06-25T05:37:14Z</time>
    </trkpt>
    <trkpt lat="51.5827440127311" lon="7.01365292966429">
    <ele>82</ele>
    <time>2008-06-25T05:37:15Z</time>
    </trkpt>
    <trkpt lat="51.5828963253084" lon="7.01434998402371">
    <ele>82</ele>
    <time>2008-06-25T05:37:17Z</time>
    </trkpt>
    <trkpt lat="51.5829701294668" lon="7.01472568080845">
    <ele>82</ele>
    <time>2008-06-25T05:37:18Z</time>
    </trkpt>
    <trkpt lat="51.5830017197254" lon="7.01493180476825">
    <ele>82</ele>
    <time>2008-06-25T05:37:19Z</time>
    </trkpt>
    <trkpt lat="51.5830715569983" lon="7.0150731093855">
    <ele>83</ele>
    <time>2008-06-25T05:37:21Z</time>
    </trkpt>
    <trkpt lat="51.5831167933656" lon="7.01508918129088">
    <ele>83</ele>
    <time>2008-06-25T05:37:24Z</time>
    </trkpt>
    <trkpt lat="51.5832139500453" lon="7.0151841866728">
    <ele>83</ele>
    <time>2008-06-25T05:37:29Z</time>
    </trkpt>
    <trkpt lat="51.5833192894444" lon="7.01509839882284">
    <ele>83</ele>
    <time>2008-06-25T05:37:56Z</time>
    </trkpt>
    <trkpt lat="51.5835307306416" lon="7.01497189813704">
    <ele>83</ele>
    <time>2008-06-25T05:37:58Z</time>
    </trkpt>
    <trkpt lat="51.5835204390741" lon="7.0153602880212">
    <ele>83</ele>
    <time>2008-06-25T05:37:59Z</time>
    </trkpt>
    <trkpt lat="51.5835295871942" lon="7.01590120281772">
    <ele>83</ele>
    <time>2008-06-25T05:38:01Z</time>
    </trkpt>
    <trkpt lat="51.5835466352637" lon="7.01657710209421">
    <ele>82</ele>
    <time>2008-06-25T05:38:03Z</time>
    </trkpt>
    <trkpt lat="51.5833842161745" lon="7.01661124174042">
    <ele>82</ele>
    <time>2008-06-25T05:38:12Z</time>
    </trkpt>
    <trkpt lat="51.5831600164084" lon="7.01664807182928">
    <ele>82</ele>
    <time>2008-06-25T05:38:15Z</time>
    </trkpt>
    <trkpt lat="51.5829872787427" lon="7.01673679097743">
    <ele>82</ele>
    <time>2008-06-25T05:38:16Z</time>
    </trkpt>
    <trkpt lat="51.5827586815004" lon="7.01684598547462">
    <ele>82</ele>
    <time>2008-06-25T05:38:18Z</time>
    </trkpt>
    <trkpt lat="51.5824400689656" lon="7.0169500768446">
    <ele>83</ele>
    <time>2008-06-25T05:38:20Z</time>
    </trkpt>
    <trkpt lat="51.5820710608276" lon="7.01706538260986">
    <ele>83</ele>
    <time>2008-06-25T05:38:22Z</time>
    </trkpt>
    <trkpt lat="51.5819254908066" lon="7.01709878564086">
    <ele>83</ele>
    <time>2008-06-25T05:38:23Z</time>
    </trkpt>
    <trkpt lat="51.5819068336962" lon="7.01732513717638">
    <ele>83</ele>
    <time>2008-06-25T05:38:29Z</time>
    </trkpt>
    <trkpt lat="51.5818942683031" lon="7.01791208592914">
    <ele>82</ele>
    <time>2008-06-25T05:38:31Z</time>
    </trkpt>
    <trkpt lat="51.5818150640097" lon="7.01854704148576">
    <ele>81</ele>
    <time>2008-06-25T05:38:35Z</time>
    </trkpt>
    <trkpt lat="51.5816286560715" lon="7.01849200120918">
    <ele>81</ele>
    <time>2008-06-25T05:38:36Z</time>
    </trkpt>
    <trkpt lat="51.5813923092123" lon="7.01847522007889">
    <ele>81</ele>
    <time>2008-06-25T05:38:41Z</time>
    </trkpt>
    <trkpt lat="51.581213192372" lon="7.01851909903661">
    <ele>81</ele>
    <time>2008-06-25T05:38:42Z</time>
    </trkpt>
    <trkpt lat="51.5810512292784" lon="7.01858027411371">
    <ele>81</ele>
    <time>2008-06-25T05:38:55Z</time>
    </trkpt>
    <trkpt lat="51.5809335886707" lon="7.01860343499173">
    <ele>81</ele>
    <time>2008-06-25T05:40:32Z</time>
    </trkpt>
    <trkpt lat="51.5807714732883" lon="7.01865559464896">
    <ele>81</ele>
    <time>2008-06-25T05:40:34Z</time>
    </trkpt>
    <trkpt lat="51.5806544415657" lon="7.01871481395177">
    <ele>81</ele>
    <time>2008-06-25T05:40:38Z</time>
    </trkpt>
    <trkpt lat="51.5805554768547" lon="7.01884541738091">
    <ele>81</ele>
    <time>2008-06-25T05:40:42Z</time>
    </trkpt>
    <trkpt lat="51.5805023566852" lon="7.01902815385326">
    <ele>81</ele>
    <time>2008-06-25T05:40:43Z</time>
    </trkpt>
    <trkpt lat="51.5802071057425" lon="7.01885155016024">
    <ele>81</ele>
    <time>2008-06-25T05:40:47Z</time>
    </trkpt>
    <trkpt lat="51.5800642593838" lon="7.01871342465079">
    <ele>81</ele>
    <time>2008-06-25T05:40:50Z</time>
    </trkpt>
    <trkpt lat="51.5800120369699" lon="7.01861646334135">
    <ele>81</ele>
    <time>2008-06-25T05:40:51Z</time>
    </trkpt>
    <trkpt lat="51.5799277904683" lon="7.01862012841174">
    <ele>81</ele>
    <time>2008-06-25T05:40:52Z</time>
    </trkpt>
    <trkpt lat="51.5798585664415" lon="7.01851488600718">
    <ele>81</ele>
    <time>2008-06-25T05:40:53Z</time>
    </trkpt>
    <trkpt lat="51.5797718840292" lon="7.01837431893198">
    <ele>80</ele>
    <time>2008-06-25T05:40:55Z</time>
    </trkpt>
    <trkpt lat="51.5795139848568" lon="7.01841260310515">
    <ele>80</ele>
    <time>2008-06-25T05:40:56Z</time>
    </trkpt>
    <trkpt lat="51.5796034887298" lon="7.01738932348676">
    <ele>81</ele>
    <time>2008-06-25T05:41:00Z</time>
    </trkpt>
    <trkpt lat="51.5797143593021" lon="7.01596817918686">
    <ele>82</ele>
    <time>2008-06-25T05:41:04Z</time>
    </trkpt>
    <trkpt lat="51.5798179456578" lon="7.01478189530342">
    <ele>82</ele>
    <time>2008-06-25T05:41:06Z</time>
    </trkpt>
    <trkpt lat="51.5798532664869" lon="7.01421202238893">
    <ele>82</ele>
    <time>2008-06-25T05:41:13Z</time>
    </trkpt>
    <trkpt lat="51.5798593115429" lon="7.01390503917924">
    <ele>82</ele>
    <time>2008-06-25T05:41:16Z</time>
    </trkpt>
    <trkpt lat="51.5798459119553" lon="7.01344554415219">
    <ele>81</ele>
    <time>2008-06-25T05:41:18Z</time>
    </trkpt>
    <trkpt lat="51.5798266406751" lon="7.01197593545996">
    <ele>81</ele>
    <time>2008-06-25T05:48:17Z</time>
    </trkpt>
    <trkpt lat="51.5796602013398" lon="7.0127680386607">
    <ele>81</ele>
    <time>2008-06-25T05:48:23Z</time>
    </trkpt>
    <trkpt lat="51.5793317336816" lon="7.01295377048248">
    <ele>79</ele>
    <time>2008-06-25T05:48:28Z</time>
    </trkpt>
    <trkpt lat="51.5792080516246" lon="7.01328392378206">
    <ele>79</ele>
    <time>2008-06-25T05:48:29Z</time>
    </trkpt>
    <trkpt lat="51.5790558286849" lon="7.01358825698548">
    <ele>79</ele>
    <time>2008-06-25T05:49:30Z</time>
    </trkpt>
    <trkpt lat="51.5786983913987" lon="7.01405489262206">
    <ele>77</ele>
    <time>2008-06-25T05:49:31Z</time>
    </trkpt>
    <trkpt lat="51.5779919713242" lon="7.01449162940895">
    <ele>74</ele>
    <time>2008-06-25T05:49:33Z</time>
    </trkpt>
    <trkpt lat="51.5773007210209" lon="7.01482846396053">
    <ele>70</ele>
    <time>2008-06-25T05:49:35Z</time>
    </trkpt>
    <trkpt lat="51.5769142553994" lon="7.0149084512572">
    <ele>69</ele>
    <time>2008-06-25T05:49:37Z</time>
    </trkpt>
    <trkpt lat="51.5764379268934" lon="7.01499235318283">
    <ele>68</ele>
    <time>2008-06-25T05:49:39Z</time>
    </trkpt>
    <trkpt lat="51.5762530423835" lon="7.01502747143652">
    <ele>67</ele>
    <time>2008-06-25T05:49:44Z</time>
    </trkpt>
    <trkpt lat="51.5759235032352" lon="7.01515007631121">
    <ele>65</ele>
    <time>2008-06-25T05:49:46Z</time>
    </trkpt>
    <trkpt lat="51.5755535815653" lon="7.01521129666016">
    <ele>64</ele>
    <time>2008-06-25T05:49:52Z</time>
    </trkpt>
    <trkpt lat="51.5752172059114" lon="7.0152620340795">
    <ele>65</ele>
    <time>2008-06-25T05:49:53Z</time>
    </trkpt>
    <trkpt lat="51.5750172762796" lon="7.01507230053727">
    <ele>65</ele>
    <time>2008-06-25T05:49:55Z</time>
    </trkpt>
    <trkpt lat="51.5747983618969" lon="7.0147571136818">
    <ele>65</ele>
    <time>2008-06-25T05:49:58Z</time>
    </trkpt>
    <trkpt lat="51.574561834704" lon="7.01439759693262">
    <ele>65</ele>
    <time>2008-06-25T05:50:00Z</time>
    </trkpt>
    <trkpt lat="51.5745155303814" lon="7.01431843430088">
    <ele>65</ele>
    <time>2008-06-25T05:50:01Z</time>
    </trkpt>
    <trkpt lat="51.5744807353686" lon="7.01392306661275">
    <ele>64</ele>
    <time>2008-06-25T05:50:02Z</time>
    </trkpt>
    <trkpt lat="51.5745060709103" lon="7.0137596001175">
    <ele>64</ele>
    <time>2008-06-25T05:50:02Z</time>
    </trkpt>
    <trkpt lat="51.5744035717202" lon="7.01334914537456">
    <ele>64</ele>
    <time>2008-06-25T05:50:04Z</time>
    </trkpt>
    <trkpt lat="51.5744079357396" lon="7.01294305114573">
    <ele>63</ele>
    <time>2008-06-25T05:50:05Z</time>
    </trkpt>
    <trkpt lat="51.5744699219443" lon="7.01195715639515">
    <ele>63</ele>
    <time>2008-06-25T05:50:06Z</time>
    </trkpt>
    <trkpt lat="51.5744348134712" lon="7.01154376427267">
    <ele>64</ele>
    <time>2008-06-25T05:50:08Z</time>
    </trkpt>
    <trkpt lat="51.5743449145409" lon="7.01121394559806">
    <ele>65</ele>
    <time>2008-06-25T05:50:09Z</time>
    </trkpt>
    <trkpt lat="51.5742396935611" lon="7.01097499780735">
    <ele>65</ele>
    <time>2008-06-25T05:50:17Z</time>
    </trkpt>
    <trkpt lat="51.5740843828651" lon="7.01076529850654">
    <ele>65</ele>
    <time>2008-06-25T05:50:18Z</time>
    </trkpt>
    <trkpt lat="51.5739071785291" lon="7.01025889704504">
    <ele>63</ele>
    <time>2008-06-25T05:50:20Z</time>
    </trkpt>
    <trkpt lat="51.5736402623939" lon="7.00976543883093">
    <ele>63</ele>
    <time>2008-06-25T05:50:22Z</time>
    </trkpt>
    <trkpt lat="51.5733847299848" lon="7.00928050875513">
    <ele>62</ele>
    <time>2008-06-25T05:50:24Z</time>
    </trkpt>
    <trkpt lat="51.5732822153212" lon="7.00887007455737">
    <ele>63</ele>
    <time>2008-06-25T05:50:25Z</time>
    </trkpt>
    <trkpt lat="51.5732823244848" lon="7.00854535448848">
    <ele>63</ele>
    <time>2008-06-25T05:50:26Z</time>
    </trkpt>
    <trkpt lat="51.5731930293215" lon="7.00825160289417">
    <ele>61</ele>
    <time>2008-06-25T05:50:27Z</time>
    </trkpt>
    <trkpt lat="51.573038739087" lon="7.00777127824166">
    <ele>61</ele>
    <time>2008-06-25T05:50:29Z</time>
    </trkpt>
    <trkpt lat="51.5727825862447" lon="7.00725031358683">
    <ele>60</ele>
    <time>2008-06-25T05:50:31Z</time>
    </trkpt>
    <trkpt lat="51.5726969137765" lon="7.00683915236403">
    <ele>60</ele>
    <time>2008-06-25T05:50:33Z</time>
    </trkpt>
    <trkpt lat="51.5726080738365" lon="7.0065724470874">
    <ele>60</ele>
    <time>2008-06-25T05:50:39Z</time>
    </trkpt>
    <trkpt lat="51.5724537768394" lon="7.00609213442515">
    <ele>59</ele>
    <time>2008-06-25T05:50:43Z</time>
    </trkpt>
    <trkpt lat="51.572395161926" lon="7.0059503847002">
    <ele>59</ele>
    <time>2008-06-25T05:51:13Z</time>
    </trkpt>
    <trkpt lat="51.5723063718653" lon="7.00601740883758">
    <ele>59</ele>
    <time>2008-06-25T05:51:14Z</time>
    </trkpt>
    <trkpt lat="51.5722336650568" lon="7.0060386304619">
    <ele>59</ele>
    <time>2008-06-25T05:51:17Z</time>
    </trkpt>
    <trkpt lat="51.5721318039765" lon="7.00599799051871">
    <ele>59</ele>
    <time>2008-06-25T05:51:18Z</time>
    </trkpt>
    <trkpt lat="51.5716013599721" lon="7.00653532096904">
    <ele>60</ele>
    <time>2008-06-25T05:51:21Z</time>
    </trkpt>
    <trkpt lat="51.571320283047" lon="7.00686330171467">
    <ele>60</ele>
    <time>2008-06-25T05:51:24Z</time>
    </trkpt>
    <trkpt lat="51.5712117339721" lon="7.00675981705507">
    <ele>60</ele>
    <time>2008-06-25T05:51:26Z</time>
    </trkpt>
    <trkpt lat="51.571155110582" lon="7.00673523602536">
    <ele>60</ele>
    <time>2008-06-25T05:51:28Z</time>
    </trkpt>
    <trkpt lat="51.5711003246701" lon="7.00681880793642">
    <ele>60</ele>
    <time>2008-06-25T05:51:31Z</time>
    </trkpt>
    <trkpt lat="51.571009439095" lon="7.00709336675962">
    <ele>61</ele>
    <time>2008-06-25T05:51:32Z</time>
    </trkpt>
    <trkpt lat="51.5708953218564" lon="7.00732384356523">
    <ele>61</ele>
    <time>2008-06-25T05:51:42Z</time>
    </trkpt>
    <trkpt lat="51.570544443304" lon="7.0078442725399">
    <ele>61</ele>
    <time>2008-06-25T05:51:44Z</time>
    </trkpt>
    <trkpt lat="51.5701050767664" lon="7.00844973470495">
    <ele>61</ele>
    <time>2008-06-25T05:51:45Z</time>
    </trkpt>
    <trkpt lat="51.5694025422278" lon="7.00944548707199">
    <ele>61</ele>
    <time>2008-06-25T05:51:49Z</time>
    </trkpt>
    <trkpt lat="51.5688866772702" lon="7.01018052519069">
    <ele>59</ele>
    <time>2008-06-25T05:52:11Z</time>
    </trkpt>
    <trkpt lat="51.5685518706146" lon="7.01065511221143">
    <ele>59</ele>
    <time>2008-06-25T05:52:14Z</time>
    </trkpt>
    <trkpt lat="51.568233644476" lon="7.01011885530804">
    <ele>58</ele>
    <time>2008-06-25T05:52:16Z</time>
    </trkpt>
    <trkpt lat="51.5677007274424" lon="7.00918613990591">
    <ele>57</ele>
    <time>2008-06-25T05:52:22Z</time>
    </trkpt>
    <trkpt lat="51.5670461863504" lon="7.00804231518451">
    <ele>58</ele>
    <time>2008-06-25T05:52:26Z</time>
    </trkpt>
    <trkpt lat="51.5665302555341" lon="7.0071179233744">
    <ele>58</ele>
    <time>2008-06-25T05:52:33Z</time>
    </trkpt>
    <trkpt lat="51.5663857117737" lon="7.00688074542041">
    <ele>58</ele>
    <time>2008-06-25T05:53:04Z</time>
    </trkpt>
    <trkpt lat="51.5660270819583" lon="7.00628317838655">
    <ele>58</ele>
    <time>2008-06-25T05:53:06Z</time>
    </trkpt>
    <trkpt lat="51.5656608411817" lon="7.00556871500739">
    <ele>57</ele>
    <time>2008-06-25T05:53:11Z</time>
    </trkpt>
    <trkpt lat="51.5654333742665" lon="7.00508266324758">
    <ele>56</ele>
    <time>2008-06-25T05:53:16Z</time>
    </trkpt>
    <trkpt lat="51.5654333742665" lon="7.00508266324758">
    <ele>56</ele>
    <time>2008-06-19T14:32:28Z</time>
    </trkpt>
    <trkpt lat="51.5644585787118" lon="7.0026273158905">
    <ele>54</ele>
    <time>2008-06-19T14:32:40Z</time>
    </trkpt>
    <trkpt lat="51.5640427186084" lon="7.00296117489832">
    <ele>53</ele>
    <time>2008-06-19T14:32:43Z</time>
    </trkpt>
    <trkpt lat="51.5638757939617" lon="7.00240035513767">
    <ele>53</ele>
    <time>2008-06-19T14:32:45Z</time>
    </trkpt>
    <trkpt lat="51.5630384489965" lon="6.99910947253545">
    <ele>54</ele>
    <time>2008-06-19T14:32:51Z</time>
    </trkpt>
    <trkpt lat="51.5624654476239" lon="6.99649243232324">
    <ele>53</ele>
    <time>2008-06-19T14:32:56Z</time>
    </trkpt>
    <trkpt lat="51.5623978190339" lon="6.99615273173909">
    <ele>53</ele>
    <time>2008-06-19T14:33:07Z</time>
    </trkpt>
    <trkpt lat="51.5622774868075" lon="6.99568910202228">
    <ele>53</ele>
    <time>2008-06-19T14:33:09Z</time>
    </trkpt>
    <trkpt lat="51.5619241814915" lon="6.9947487707254">
    <ele>53</ele>
    <time>2008-06-19T14:33:12Z</time>
    </trkpt>
    <trkpt lat="51.56160203244" lon="6.99398743380508">
    <ele>52</ele>
    <time>2008-06-19T14:33:16Z</time>
    </trkpt>
    <trkpt lat="51.5612220192933" lon="6.99312946290196">
    <ele>52</ele>
    <time>2008-06-19T14:33:28Z</time>
    </trkpt>
    <trkpt lat="51.5610361291227" lon="6.99277694989061">
    <ele>51</ele>
    <time>2008-06-19T14:33:30Z</time>
    </trkpt>
    <trkpt lat="51.5604702406023" lon="6.99222476177947">
    <ele>50</ele>
    <time>2008-06-19T14:33:37Z</time>
    </trkpt>
    <trkpt lat="51.560351281387" lon="6.99184225713138">
    <ele>50</ele>
    <time>2008-06-19T14:33:38Z</time>
    </trkpt>
    <trkpt lat="51.5602529350195" lon="6.99135063832221">
    <ele>49</ele>
    <time>2008-06-19T14:33:39Z</time>
    </trkpt>
    <trkpt lat="51.5601705097416" lon="6.99080421598067">
    <ele>48</ele>
    <time>2008-06-19T14:33:42Z</time>
    </trkpt>
    <trkpt lat="51.5599513776585" lon="6.99048023779809">
    <ele>47</ele>
    <time>2008-06-19T14:33:45Z</time>
    </trkpt>
    <trkpt lat="51.5599469597668" lon="6.98989431122619">
    <ele>47</ele>
    <time>2008-06-19T14:33:56Z</time>
    </trkpt>
    <trkpt lat="51.55991383942" lon="6.98927358198351">
    <ele>47</ele>
    <time>2008-06-19T14:34:00Z</time>
    </trkpt>
    <trkpt lat="51.5598674198484" lon="6.98886083696115">
    <ele>47</ele>
    <time>2008-06-19T14:34:01Z</time>
    </trkpt>
    <trkpt lat="51.5598476356529" lon="6.98869038251832">
    <ele>47</ele>
    <time>2008-06-19T14:34:08Z</time>
    </trkpt>
    <trkpt lat="51.5601375229486" lon="6.9885513476544">
    <ele>47</ele>
    <time>2008-06-19T14:34:12Z</time>
    </trkpt>
    <trkpt lat="51.5604274100469" lon="6.98841231097494">
    <ele>47</ele>
    <time>2008-06-19T14:34:22Z</time>
    </trkpt>
    <trkpt lat="51.5604940336714" lon="6.9883642836007">
    <ele>47</ele>
    <time>2008-06-19T14:34:34Z</time>
    </trkpt>
    <trkpt lat="51.5605368956689" lon="6.98826739960554">
    <ele>47</ele>
    <time>2008-06-19T14:34:36Z</time>
    </trkpt>
    <trkpt lat="51.5604519378675" lon="6.98820382925112">
    <ele>47</ele>
    <time>2008-06-19T14:35:18Z</time>
    </trkpt>
    <trkpt lat="51.56056153571" lon="6.98771205311374">
    <ele>46</ele>
    <time>2008-06-19T14:35:24Z</time>
    </trkpt>
    <trkpt lat="51.5605061967731" lon="6.98743495812366">
    <ele>46</ele>
    <time>2008-06-19T14:35:26Z</time>
    </trkpt>
    <trkpt lat="51.5602780870063" lon="6.98658838551466">
    <ele>44</ele>
    <time>2008-06-19T14:35:29Z</time>
    </trkpt>
    <trkpt lat="51.5601394762247" lon="6.98604445387984">
    <ele>44</ele>
    <time>2008-06-19T14:35:43Z</time>
    </trkpt>
    <trkpt lat="51.5601573005285" lon="6.98577314729143">
    <ele>43</ele>
    <time>2008-06-19T14:35:45Z</time>
    </trkpt>
    <trkpt lat="51.5602737201827" lon="6.98437031714757">
    <ele>43</ele>
    <time>2008-06-19T14:35:50Z</time>
    </trkpt>
    <trkpt lat="51.5603643651736" lon="6.98310388039196">
    <ele>38</ele>
    <time>2008-06-19T14:36:13Z</time>
    </trkpt>
    <trkpt lat="51.5603196283211" lon="6.98279025343515">
    <ele>38</ele>
    <time>2008-06-25T05:59:36Z</time>
    </trkpt>
    <trkpt lat="51.5603199762306" lon="6.98248364864676">
    <ele>40</ele>
    <time>2008-06-25T05:59:40Z</time>
    </trkpt>
    <trkpt lat="51.560377607964" lon="6.98191300460738">
    <ele>40</ele>
    <time>2008-06-25T05:59:42Z</time>
    </trkpt>
    <trkpt lat="51.5604824932243" lon="6.98147552664546">
    <ele>40</ele>
    <time>2008-06-25T05:59:50Z</time>
    </trkpt>
    <trkpt lat="51.5604463145005" lon="6.98133285118827">
    <ele>41</ele>
    <time>2008-06-25T05:59:55Z</time>
    </trkpt>
    <trkpt lat="51.560373491309" lon="6.98102046953179">
    <ele>41</ele>
    <time>2008-06-25T06:00:09Z</time>
    </trkpt>
    <trkpt lat="51.5601642013735" lon="6.98029032168487">
    <ele>41</ele>
    <time>2008-06-25T06:00:17Z</time>
    </trkpt>
    <trkpt lat="51.5599893808089" lon="6.97960373876711">
    <ele>41</ele>
    <time>2008-06-25T06:00:21Z</time>
    </trkpt>
    <trkpt lat="51.5598744449662" lon="6.9791309195109">
    <ele>40</ele>
    <time>2008-06-25T06:00:26Z</time>
    </trkpt>
    <trkpt lat="51.5597863472204" lon="6.97876647396093">
    <ele>39</ele>
    <time>2008-06-25T06:00:28Z</time>
    </trkpt>
    <trkpt lat="51.5597001095953" lon="6.9781467555613">
    <ele>38</ele>
    <time>2008-06-25T06:00:31Z</time>
    </trkpt>
    <trkpt lat="51.5596686716081" lon="6.97788316338314">
    <ele>38</ele>
    <time>2008-06-25T06:00:38Z</time>
    </trkpt>
    <trkpt lat="51.5595229775709" lon="6.97782006977044">
    <ele>38</ele>
    <time>2008-06-25T06:00:42Z</time>
    </trkpt>
    <trkpt lat="51.5593119025417" lon="6.97682042252349">
    <ele>37</ele>
    <time>2008-06-25T06:00:45Z</time>
    </trkpt>
    <trkpt lat="51.5593119025417" lon="6.97682042252349">
    <ele>37</ele>
    <time>2008-06-25T06:00:55Z</time>
    </trkpt>
    <trkpt lat="51.5590542552115" lon="6.97556946635194">
    <ele>37</ele>
    <time>2008-06-25T06:01:00Z</time>
    </trkpt>
    <trkpt lat="51.5589570078443" lon="6.97510704442435">
    <ele>38</ele>
    <time>2008-06-25T06:01:02Z</time>
    </trkpt>
    <trkpt lat="51.5588722355672" lon="6.97479306699119">
    <ele>39</ele>
    <time>2008-06-25T06:01:05Z</time>
    </trkpt>
    <trkpt lat="51.5587945003837" lon="6.97452117516357">
    <ele>39</ele>
    <time>2008-06-25T06:01:06Z</time>
    </trkpt>
    <trkpt lat="51.5587441808539" lon="6.97421264971772">
    <ele>40</ele>
    <time>2008-06-25T06:01:09Z</time>
    </trkpt>
    <trkpt lat="51.5586747764731" lon="6.97377390046758">
    <ele>41</ele>
    <time>2008-06-25T06:01:12Z</time>
    </trkpt>
    <trkpt lat="51.55859882017" lon="6.97328134181963">
    <ele>41</ele>
    <time>2008-06-25T06:01:14Z</time>
    </trkpt>
    <trkpt lat="51.5585292566328" lon="6.97283358541073">
    <ele>42</ele>
    <time>2008-06-25T06:01:16Z</time>
    </trkpt>
    <trkpt lat="51.5584526724505" lon="6.97236697895854">
    <ele>42</ele>
    <time>2008-06-25T06:01:20Z</time>
    </trkpt>
    <trkpt lat="51.5580935512564" lon="6.97201439120245">
    <ele>44</ele>
    <time>2008-06-25T06:01:28Z</time>
    </trkpt>
    <trkpt lat="51.5573206993146" lon="6.97126734742292">
    <ele>46</ele>
    <time>2008-06-25T06:01:34Z</time>
    </trkpt>
    <trkpt lat="51.5574327771194" lon="6.97075358514808">
    <ele>47</ele>
    <time>2008-06-25T06:01:39Z</time>
    </trkpt>
  </trkseg>
  <trkseg>
    <trkpt lat="51.5574327771194" lon="6.97075358514808">
    <ele>47</ele>
    <time>2008-06-19T12:25:20Z</time>
    </trkpt>
    <trkpt lat="51.5576161945154" lon="6.97073720883406">
    <ele>46</ele>
    <time>2008-06-19T12:25:09Z</time>
    </trkpt>
    <trkpt lat="51.5580714257474" lon="6.97073497525708">
    <ele>46</ele>
    <time>2008-06-19T12:25:07Z</time>
    </trkpt>
    <trkpt lat="51.5585545825292" lon="6.97072248120198">
    <ele>44</ele>
    <time>2008-06-19T12:25:04Z</time>
    </trkpt>
    <trkpt lat="51.5587230712112" lon="6.97071497965833">
    <ele>44</ele>
    <time>2008-06-19T12:25:02Z</time>
    </trkpt>
    <trkpt lat="51.5588477206204" lon="6.97077254931305">
    <ele>43</ele>
    <time>2008-06-19T12:25:01Z</time>
    </trkpt>
    <trkpt lat="51.5588890607873" lon="6.97088793064276">
    <ele>43</ele>
    <time>2008-06-19T12:24:57Z</time>
    </trkpt>
    <trkpt lat="51.5588913984975" lon="6.9710230825735">
    <ele>43</ele>
    <time>2008-06-19T12:24:54Z</time>
    </trkpt>
    <trkpt lat="51.5589066827421" lon="6.97125684598833">
    <ele>43</ele>
    <time>2008-06-19T12:24:51Z</time>
    </trkpt>
    <trkpt lat="51.5589534829141" lon="6.97136296780118">
    <ele>43</ele>
    <time>2008-06-19T12:24:49Z</time>
    </trkpt>
    <trkpt lat="51.559033513314" lon="6.97144055957871">
    <ele>42</ele>
    <time>2008-06-19T12:24:47Z</time>
    </trkpt>
    <trkpt lat="51.5591068367235" lon="6.9714553303613">
    <ele>42</ele>
    <time>2008-06-19T12:24:46Z</time>
    </trkpt>
    <trkpt lat="51.5592138578797" lon="6.9714686014042">
    <ele>42</ele>
    <time>2008-06-19T12:24:45Z</time>
    </trkpt>
    <trkpt lat="51.5595790726212" lon="6.97146136382527">
    <ele>42</ele>
    <time>2008-06-19T12:24:41Z</time>
    </trkpt>
    <trkpt lat="51.5599109012161" lon="6.97147364654846">
    <ele>43</ele>
    <time>2008-06-19T12:24:29Z</time>
    </trkpt>
    <trkpt lat="51.5604279115668" lon="6.97146866985003">
    <ele>43</ele>
    <time>2008-06-19T12:24:26Z</time>
    </trkpt>
    <trkpt lat="51.5610071684963" lon="6.97148797473521">
    <ele>43</ele>
    <time>2008-06-19T12:24:21Z</time>
    </trkpt>
    <trkpt lat="51.5615302624808" lon="6.97150977970743">
    <ele>44</ele>
    <time>2008-06-19T12:24:18Z</time>
    </trkpt>
    <trkpt lat="51.5618505467763" lon="6.97150454143908">
    <ele>43</ele>
    <time>2008-06-19T12:24:14Z</time>
    </trkpt>
    <trkpt lat="51.5619525748379" lon="6.97155410614677">
    <ele>43</ele>
    <time>2008-06-19T12:24:11Z</time>
    </trkpt>
    <trkpt lat="51.5620106073777" lon="6.97165973534634">
    <ele>43</ele>
    <time>2008-06-19T12:24:09Z</time>
    </trkpt>
    <trkpt lat="51.5620701977097" lon="6.9718554724331">
    <ele>43</ele>
    <time>2008-06-19T12:24:01Z</time>
    </trkpt>
    <trkpt lat="51.5621288529725" lon="6.97199713878141">
    <ele>43</ele>
    <time>2008-06-19T12:23:54Z</time>
    </trkpt>
    <trkpt lat="51.5622318154485" lon="6.97210076965362">
    <ele>43</ele>
    <time>2008-06-19T12:23:49Z</time>
    </trkpt>
    <trkpt lat="51.5627878283157" lon="6.97207603444352">
    <ele>43</ele>
    <time>2008-06-19T12:23:47Z</time>
    </trkpt>
    <trkpt lat="51.5633438408929" lon="6.97205128522035">
    <ele>45</ele>
    <time>2008-06-19T12:23:42Z</time>
    </trkpt>
    <trkpt lat="51.5634166969967" lon="6.97203903171154">
    <ele>46</ele>
    <time>2008-06-19T12:23:38Z</time>
    </trkpt>
    <trkpt lat="51.5635280881243" lon="6.97197996675663">
    <ele>46</ele>
    <time>2008-06-19T12:23:33Z</time>
    </trkpt>
    <trkpt lat="51.5638452566399" lon="6.9717945088993">
    <ele>47</ele>
    <time>2008-06-19T12:23:29Z</time>
    </trkpt>
    <trkpt lat="51.5643463599786" lon="6.97151969775779">
    <ele>47</ele>
    <time>2008-06-19T12:23:20Z</time>
    </trkpt>
    <trkpt lat="51.5646747602251" lon="6.97133373316758">
    <ele>48</ele>
    <time>2008-06-19T12:23:14Z</time>
    </trkpt>
    <trkpt lat="51.5653928712295" lon="6.97093201062886">
    <ele>48</ele>
    <time>2008-06-19T12:23:12Z</time>
    </trkpt>
    <trkpt lat="51.5659050488964" lon="6.97064766848513">
    <ele>48</ele>
    <time>2008-06-19T12:23:09Z</time>
    </trkpt>
  </trkseg>
</trk>
<extensions>
</extensions>
</gpx>
